sensor_id;sensor_type;location;lat;lon;timestamp;temperature;humidity
16907;DHT22;8570;52.380;4.654;2022-08-07T00:01:54;16.10;97.40
16907;DHT22;8570;52.380;4.654;2022-08-07T00:06:56;16.10;97.50
16907;DHT22;8570;52.380;4.654;2022-08-07T00:11:59;16.00;97.90
16907;DHT22;8570;52.380;4.654;2022-08-07T00:17:01;16.00;97.60
16907;DHT22;8570;52.380;4.654;2022-08-07T00:22:03;16.00;97.80
16907;DHT22;8570;52.380;4.654;2022-08-07T00:27:07;15.90;97.90
16907;DHT22;8570;52.380;4.654;2022-08-07T00:32:09;15.90;98.00
16907;DHT22;8570;52.380;4.654;2022-08-07T00:37:13;15.80;98.00
16907;DHT22;8570;52.380;4.654;2022-08-07T00:42:16;15.80;98.10
16907;DHT22;8570;52.380;4.654;2022-08-07T00:47:18;15.80;98.20
16907;DHT22;8570;52.380;4.654;2022-08-07T00:52:20;15.70;98.20
16907;DHT22;8570;52.380;4.654;2022-08-07T00:57:24;15.60;98.20
16907;DHT22;8570;52.380;4.654;2022-08-07T01:02:26;15.60;98.40
16907;DHT22;8570;52.380;4.654;2022-08-07T01:07:28;15.60;98.40
16907;DHT22;8570;52.380;4.654;2022-08-07T01:12:32;15.50;98.50
16907;DHT22;8570;52.380;4.654;2022-08-07T01:17:35;15.50;98.60
16907;DHT22;8570;52.380;4.654;2022-08-07T01:22:39;15.40;98.60
16907;DHT22;8570;52.380;4.654;2022-08-07T01:27:41;15.40;98.70
16907;DHT22;8570;52.380;4.654;2022-08-07T01:32:43;15.30;98.80
16907;DHT22;8570;52.380;4.654;2022-08-07T01:37:46;15.30;98.90
16907;DHT22;8570;52.380;4.654;2022-08-07T01:42:48;15.30;99.00
16907;DHT22;8570;52.380;4.654;2022-08-07T01:47:53;15.20;99.10
16907;DHT22;8570;52.380;4.654;2022-08-07T01:52:58;15.20;99.20
16907;DHT22;8570;52.380;4.654;2022-08-07T01:58:02;15.10;99.30
16907;DHT22;8570;52.380;4.654;2022-08-07T02:03:11;15.10;99.40
16907;DHT22;8570;52.380;4.654;2022-08-07T02:08:18;15.10;99.50
16907;DHT22;8570;52.380;4.654;2022-08-07T02:13:25;15.00;99.50
16907;DHT22;8570;52.380;4.654;2022-08-07T02:18:29;15.00;99.50
16907;DHT22;8570;52.380;4.654;2022-08-07T02:23:35;15.00;99.60
16907;DHT22;8570;52.380;4.654;2022-08-07T02:28:38;14.90;99.60
16907;DHT22;8570;52.380;4.654;2022-08-07T02:33:41;14.90;99.60
16907;DHT22;8570;52.380;4.654;2022-08-07T02:38:45;14.90;99.70
16907;DHT22;8570;52.380;4.654;2022-08-07T02:43:48;14.80;99.80
16907;DHT22;8570;52.380;4.654;2022-08-07T02:48:53;14.80;99.90
16907;DHT22;8570;52.380;4.654;2022-08-07T02:53:57;14.70;99.90
16907;DHT22;8570;52.380;4.654;2022-08-07T02:59:02;14.70;99.90
16907;DHT22;8570;52.380;4.654;2022-08-07T03:04:05;14.70;99.90
16907;DHT22;8570;52.380;4.654;2022-08-07T03:09:10;14.60;99.90
16907;DHT22;8570;52.380;4.654;2022-08-07T03:14:12;14.60;99.90
16907;DHT22;8570;52.380;4.654;2022-08-07T03:19:15;14.60;99.90
16907;DHT22;8570;52.380;4.654;2022-08-07T03:24:21;14.50;99.90
16907;DHT22;8570;52.380;4.654;2022-08-07T03:29:23;14.50;99.90
16907;DHT22;8570;52.380;4.654;2022-08-07T03:34:26;14.40;99.90
16907;DHT22;8570;52.380;4.654;2022-08-07T03:39:32;14.40;99.90
16907;DHT22;8570;52.380;4.654;2022-08-07T03:44:36;14.40;99.90
16907;DHT22;8570;52.380;4.654;2022-08-07T03:49:39;14.30;99.90
16907;DHT22;8570;52.380;4.654;2022-08-07T03:54:42;14.30;99.90
16907;DHT22;8570;52.380;4.654;2022-08-07T03:59:44;14.20;99.90
16907;DHT22;8570;52.380;4.654;2022-08-07T04:04:46;14.20;99.90
16907;DHT22;8570;52.380;4.654;2022-08-07T04:09:53;14.20;99.90
16907;DHT22;8570;52.380;4.654;2022-08-07T04:14:56;14.10;99.90
16907;DHT22;8570;52.380;4.654;2022-08-07T04:19:58;14.10;99.90
16907;DHT22;8570;52.380;4.654;2022-08-07T04:25:02;14.10;99.90
16907;DHT22;8570;52.380;4.654;2022-08-07T04:30:05;14.10;99.90
16907;DHT22;8570;52.380;4.654;2022-08-07T04:35:08;14.00;99.90
16907;DHT22;8570;52.380;4.654;2022-08-07T04:40:12;14.00;99.90
16907;DHT22;8570;52.380;4.654;2022-08-07T04:45:15;14.00;99.90
16907;DHT22;8570;52.380;4.654;2022-08-07T04:50:25;14.00;99.90
16907;DHT22;8570;52.380;4.654;2022-08-07T04:55:34;14.00;99.90
16907;DHT22;8570;52.380;4.654;2022-08-07T05:00:39;14.00;99.90
16907;DHT22;8570;52.380;4.654;2022-08-07T05:05:50;13.90;99.90
16907;DHT22;8570;52.380;4.654;2022-08-07T05:10:59;13.90;99.90
16907;DHT22;8570;52.380;4.654;2022-08-07T05:16:05;14.00;99.90
16907;DHT22;8570;52.380;4.654;2022-08-07T05:21:10;14.00;99.90
16907;DHT22;8570;52.380;4.654;2022-08-07T05:26:20;14.00;99.90
16907;DHT22;8570;52.380;4.654;2022-08-07T05:31:25;14.00;99.90
16907;DHT22;8570;52.380;4.654;2022-08-07T05:36:29;14.10;99.90
16907;DHT22;8570;52.380;4.654;2022-08-07T05:41:34;14.10;99.90
16907;DHT22;8570;52.380;4.654;2022-08-07T05:46:36;14.20;99.90
16907;DHT22;8570;52.380;4.654;2022-08-07T05:51:39;14.20;99.90
16907;DHT22;8570;52.380;4.654;2022-08-07T05:56:43;14.30;99.90
16907;DHT22;8570;52.380;4.654;2022-08-07T06:01:48;14.40;99.90
16907;DHT22;8570;52.380;4.654;2022-08-07T06:06:50;14.40;99.90
16907;DHT22;8570;52.380;4.654;2022-08-07T06:11:54;14.50;99.90
16907;DHT22;8570;52.380;4.654;2022-08-07T06:16:56;14.50;99.90
16907;DHT22;8570;52.380;4.654;2022-08-07T06:21:58;14.60;99.90
16907;DHT22;8570;52.380;4.654;2022-08-07T06:27:01;14.70;99.90
16907;DHT22;8570;52.380;4.654;2022-08-07T06:32:04;14.70;99.90
16907;DHT22;8570;52.380;4.654;2022-08-07T06:37:06;14.80;99.90
16907;DHT22;8570;52.380;4.654;2022-08-07T06:42:13;14.90;99.90
16907;DHT22;8570;52.380;4.654;2022-08-07T06:47:17;14.90;99.90
16907;DHT22;8570;52.380;4.654;2022-08-07T06:52:21;15.00;99.90
16907;DHT22;8570;52.380;4.654;2022-08-07T06:57:26;15.10;99.90
16907;DHT22;8570;52.380;4.654;2022-08-07T07:02:31;15.20;99.90
16907;DHT22;8570;52.380;4.654;2022-08-07T07:07:33;15.30;99.90
16907;DHT22;8570;52.380;4.654;2022-08-07T07:12:42;15.40;99.90
16907;DHT22;8570;52.380;4.654;2022-08-07T07:17:52;15.50;99.90
16907;DHT22;8570;52.380;4.654;2022-08-07T07:22:55;15.60;99.90
16907;DHT22;8570;52.380;4.654;2022-08-07T07:28:01;15.70;99.90
16907;DHT22;8570;52.380;4.654;2022-08-07T07:33:09;15.80;99.90
16907;DHT22;8570;52.380;4.654;2022-08-07T07:38:12;15.90;99.90
16907;DHT22;8570;52.380;4.654;2022-08-07T07:43:19;16.10;99.90
16907;DHT22;8570;52.380;4.654;2022-08-07T07:48:26;16.20;99.90
16907;DHT22;8570;52.380;4.654;2022-08-07T07:53:29;16.30;99.90
16907;DHT22;8570;52.380;4.654;2022-08-07T07:58:36;16.40;99.90
16907;DHT22;8570;52.380;4.654;2022-08-07T08:03:40;16.50;99.90
16907;DHT22;8570;52.380;4.654;2022-08-07T08:08:42;16.60;99.90
16907;DHT22;8570;52.380;4.654;2022-08-07T08:13:47;16.70;99.90
16907;DHT22;8570;52.380;4.654;2022-08-07T08:18:50;16.80;99.90
16907;DHT22;8570;52.380;4.654;2022-08-07T08:23:54;16.90;99.90
16907;DHT22;8570;52.380;4.654;2022-08-07T08:29:16;17.00;99.90
16907;DHT22;8570;52.380;4.654;2022-08-07T08:34:19;17.10;99.90
16907;DHT22;8570;52.380;4.654;2022-08-07T08:39:22;17.40;99.90
16907;DHT22;8570;52.380;4.654;2022-08-07T08:44:32;17.70;99.90
16907;DHT22;8570;52.380;4.654;2022-08-07T08:49:41;18.30;99.90
16907;DHT22;8570;52.380;4.654;2022-08-07T08:54:50;18.80;99.90
16907;DHT22;8570;52.380;4.654;2022-08-07T09:00:02;19.40;99.90
16907;DHT22;8570;52.380;4.654;2022-08-07T09:05:15;20.00;99.40
16907;DHT22;8570;52.380;4.654;2022-08-07T09:10:23;20.30;98.00
16907;DHT22;8570;52.380;4.654;2022-08-07T09:15:38;20.60;97.70
16907;DHT22;8570;52.380;4.654;2022-08-07T09:20:49;20.90;96.70
16907;DHT22;8570;52.380;4.654;2022-08-07T09:26:01;21.10;96.40
16907;DHT22;8570;52.380;4.654;2022-08-07T09:31:12;21.40;96.70
16907;DHT22;8570;52.380;4.654;2022-08-07T09:36:22;21.70;95.20
16907;DHT22;8570;52.380;4.654;2022-08-07T09:41:32;22.00;94.70
16907;DHT22;8570;52.380;4.654;2022-08-07T09:46:56;22.20;94.10
16907;DHT22;8570;52.380;4.654;2022-08-07T09:52:07;22.50;94.00
16907;DHT22;8570;52.380;4.654;2022-08-07T09:57:48;22.70;93.70
16907;DHT22;8570;52.380;4.654;2022-08-07T10:03:13;23.00;92.80
16907;DHT22;8570;52.380;4.654;2022-08-07T10:14:00;23.50;92.30
16907;DHT22;8570;52.380;4.654;2022-08-07T10:24:49;23.80;90.20
16907;DHT22;8570;52.380;4.654;2022-08-07T10:30:03;24.00;89.00
16907;DHT22;8570;52.380;4.654;2022-08-07T10:35:11;24.10;89.30
16907;DHT22;8570;52.380;4.654;2022-08-07T10:40:19;24.30;87.20
16907;DHT22;8570;52.380;4.654;2022-08-07T10:45:26;24.50;85.90
16907;DHT22;8570;52.380;4.654;2022-08-07T10:50:36;24.60;86.60
16907;DHT22;8570;52.380;4.654;2022-08-07T10:55:45;24.90;85.90
16907;DHT22;8570;52.380;4.654;2022-08-07T11:00:57;25.10;82.00
16907;DHT22;8570;52.380;4.654;2022-08-07T11:06:10;25.20;83.00
16907;DHT22;8570;52.380;4.654;2022-08-07T11:11:22;25.30;84.10
16907;DHT22;8570;52.380;4.654;2022-08-07T11:16:28;25.40;83.90
16907;DHT22;8570;52.380;4.654;2022-08-07T11:21:41;25.40;84.40
16907;DHT22;8570;52.380;4.654;2022-08-07T11:26:50;25.50;82.90
16907;DHT22;8570;52.380;4.654;2022-08-07T11:32:02;25.60;84.00
16907;DHT22;8570;52.380;4.654;2022-08-07T11:37:12;25.80;83.70
16907;DHT22;8570;52.380;4.654;2022-08-07T11:42:21;25.90;83.40
16907;DHT22;8570;52.380;4.654;2022-08-07T11:47:38;25.90;81.90
16907;DHT22;8570;52.380;4.654;2022-08-07T11:53:01;26.00;82.00
16907;DHT22;8570;52.380;4.654;2022-08-07T11:58:09;26.00;80.80
16907;DHT22;8570;52.380;4.654;2022-08-07T12:03:34;26.00;82.30
16907;DHT22;8570;52.380;4.654;2022-08-07T12:08:46;26.00;82.30
16907;DHT22;8570;52.380;4.654;2022-08-07T12:13:55;26.10;81.80
16907;DHT22;8570;52.380;4.654;2022-08-07T12:19:07;26.10;81.60
16907;DHT22;8570;52.380;4.654;2022-08-07T12:24:19;26.20;81.40
16907;DHT22;8570;52.380;4.654;2022-08-07T12:29:27;26.10;80.90
16907;DHT22;8570;52.380;4.654;2022-08-07T12:34:34;26.30;81.40
16907;DHT22;8570;52.380;4.654;2022-08-07T12:39:39;26.30;80.50
16907;DHT22;8570;52.380;4.654;2022-08-07T12:44:45;26.30;80.30
16907;DHT22;8570;52.380;4.654;2022-08-07T12:49:54;26.40;80.00
16907;DHT22;8570;52.380;4.654;2022-08-07T12:55:02;26.30;79.90
16907;DHT22;8570;52.380;4.654;2022-08-07T13:00:06;26.10;81.00
16907;DHT22;8570;52.380;4.654;2022-08-07T13:05:18;26.10;80.90
16907;DHT22;8570;52.380;4.654;2022-08-07T13:10:36;26.00;80.70
16907;DHT22;8570;52.380;4.654;2022-08-07T13:15:48;25.90;78.60
16907;DHT22;8570;52.380;4.654;2022-08-07T13:21:00;25.90;79.20
16907;DHT22;8570;52.380;4.654;2022-08-07T13:26:09;25.80;80.40
16907;DHT22;8570;52.380;4.654;2022-08-07T13:31:16;25.70;81.70
16907;DHT22;8570;52.380;4.654;2022-08-07T13:36:29;25.80;82.10
16907;DHT22;8570;52.380;4.654;2022-08-07T13:41:40;26.00;78.30
16907;DHT22;8570;52.380;4.654;2022-08-07T13:46:45;25.90;77.60
16907;DHT22;8570;52.380;4.654;2022-08-07T13:51:48;25.90;78.80
16907;DHT22;8570;52.380;4.654;2022-08-07T13:56:55;25.90;78.30
16907;DHT22;8570;52.380;4.654;2022-08-07T14:02:00;25.90;76.70
16907;DHT22;8570;52.380;4.654;2022-08-07T14:07:10;25.80;78.80
16907;DHT22;8570;52.380;4.654;2022-08-07T14:12:21;25.70;78.80
16907;DHT22;8570;52.380;4.654;2022-08-07T14:17:25;25.70;76.80
16907;DHT22;8570;52.380;4.654;2022-08-07T14:22:31;25.70;77.40
16907;DHT22;8570;52.380;4.654;2022-08-07T14:27:36;25.70;78.70
16907;DHT22;8570;52.380;4.654;2022-08-07T14:32:40;25.80;78.20
16907;DHT22;8570;52.380;4.654;2022-08-07T14:37:47;25.80;79.10
16907;DHT22;8570;52.380;4.654;2022-08-07T14:42:55;25.70;80.20
16907;DHT22;8570;52.380;4.654;2022-08-07T14:48:00;25.80;79.90
16907;DHT22;8570;52.380;4.654;2022-08-07T14:53:05;25.70;81.70
16907;DHT22;8570;52.380;4.654;2022-08-07T14:58:10;25.60;81.30
16907;DHT22;8570;52.380;4.654;2022-08-07T15:03:14;25.50;82.20
16907;DHT22;8570;52.380;4.654;2022-08-07T15:08:22;25.40;83.10
16907;DHT22;8570;52.380;4.654;2022-08-07T15:13:26;25.20;83.70
16907;DHT22;8570;52.380;4.654;2022-08-07T15:18:32;25.10;84.90
16907;DHT22;8570;52.380;4.654;2022-08-07T15:23:37;24.90;86.00
16907;DHT22;8570;52.380;4.654;2022-08-07T15:28:42;24.70;86.70
16907;DHT22;8570;52.380;4.654;2022-08-07T15:33:45;24.50;87.80
16907;DHT22;8570;52.380;4.654;2022-08-07T15:38:47;24.40;88.70
16907;DHT22;8570;52.380;4.654;2022-08-07T15:43:58;24.40;89.50
16907;DHT22;8570;52.380;4.654;2022-08-07T15:49:02;24.40;89.10
16907;DHT22;8570;52.380;4.654;2022-08-07T15:54:05;24.40;88.90
16907;DHT22;8570;52.380;4.654;2022-08-07T15:59:11;24.20;89.50
16907;DHT22;8570;52.380;4.654;2022-08-07T16:04:16;24.20;90.00
16907;DHT22;8570;52.380;4.654;2022-08-07T16:09:24;24.20;89.90
16907;DHT22;8570;52.380;4.654;2022-08-07T16:14:45;24.10;90.20
16907;DHT22;8570;52.380;4.654;2022-08-07T16:20:00;24.00;90.20
16907;DHT22;8570;52.380;4.654;2022-08-07T16:25:14;23.90;90.20
16907;DHT22;8570;52.380;4.654;2022-08-07T16:30:20;23.80;90.50
16907;DHT22;8570;52.380;4.654;2022-08-07T16:35:25;23.70;90.80
16907;DHT22;8570;52.380;4.654;2022-08-07T16:41:08;23.60;91.20
16907;DHT22;8570;52.380;4.654;2022-08-07T16:46:28;23.60;91.80
16907;DHT22;8570;52.380;4.654;2022-08-07T16:51:39;23.50;91.80
16907;DHT22;8570;52.380;4.654;2022-08-07T16:57:00;23.40;91.70
16907;DHT22;8570;52.380;4.654;2022-08-07T17:02:33;23.30;91.60
16907;DHT22;8570;52.380;4.654;2022-08-07T17:07:46;23.20;91.90
16907;DHT22;8570;52.380;4.654;2022-08-07T17:12:53;23.10;92.10
16907;DHT22;8570;52.380;4.654;2022-08-07T17:18:06;23.00;92.20
16907;DHT22;8570;52.380;4.654;2022-08-07T17:23:25;22.90;92.40
16907;DHT22;8570;52.380;4.654;2022-08-07T17:28:32;22.80;92.60
16907;DHT22;8570;52.380;4.654;2022-08-07T17:33:46;22.50;93.10
16907;DHT22;8570;52.380;4.654;2022-08-07T17:38:53;22.40;93.30
16907;DHT22;8570;52.380;4.654;2022-08-07T17:44:06;22.30;93.60
16907;DHT22;8570;52.380;4.654;2022-08-07T17:49:21;22.20;93.90
16907;DHT22;8570;52.380;4.654;2022-08-07T17:54:29;22.10;94.00
16907;DHT22;8570;52.380;4.654;2022-08-07T17:59:43;21.90;94.10
16907;DHT22;8570;52.380;4.654;2022-08-07T18:04:53;21.80;94.40
16907;DHT22;8570;52.380;4.654;2022-08-07T18:10:00;21.70;94.10
16907;DHT22;8570;52.380;4.654;2022-08-07T18:15:07;21.50;94.10
16907;DHT22;8570;52.380;4.654;2022-08-07T18:20:13;21.40;94.00
16907;DHT22;8570;52.380;4.654;2022-08-07T18:25:23;21.30;94.00
16907;DHT22;8570;52.380;4.654;2022-08-07T18:30:32;21.20;94.40
16907;DHT22;8570;52.380;4.654;2022-08-07T18:35:49;21.10;94.70
16907;DHT22;8570;52.380;4.654;2022-08-07T18:41:02;21.00;94.60
16907;DHT22;8570;52.380;4.654;2022-08-07T18:46:18;20.90;94.60
16907;DHT22;8570;52.380;4.654;2022-08-07T18:51:28;20.80;94.50
16907;DHT22;8570;52.380;4.654;2022-08-07T18:56:41;20.70;94.60
16907;DHT22;8570;52.380;4.654;2022-08-07T19:01:49;20.60;94.70
16907;DHT22;8570;52.380;4.654;2022-08-07T19:06:59;20.60;94.90
16907;DHT22;8570;52.380;4.654;2022-08-07T19:12:10;20.50;95.10
16907;DHT22;8570;52.380;4.654;2022-08-07T19:17:17;20.40;95.20
16907;DHT22;8570;52.380;4.654;2022-08-07T19:22:21;20.30;95.40
16907;DHT22;8570;52.380;4.654;2022-08-07T19:27:30;20.20;95.50
16907;DHT22;8570;52.380;4.654;2022-08-07T19:32:37;20.10;95.50
16907;DHT22;8570;52.380;4.654;2022-08-07T19:37:44;20.10;95.60
16907;DHT22;8570;52.380;4.654;2022-08-07T19:42:47;20.00;95.70
16907;DHT22;8570;52.380;4.654;2022-08-07T19:47:51;19.90;95.80
16907;DHT22;8570;52.380;4.654;2022-08-07T19:52:55;19.80;95.80
16907;DHT22;8570;52.380;4.654;2022-08-07T19:57:58;19.80;96.10
16907;DHT22;8570;52.380;4.654;2022-08-07T20:03:01;19.70;96.10
16907;DHT22;8570;52.380;4.654;2022-08-07T20:08:09;19.70;96.30
16907;DHT22;8570;52.380;4.654;2022-08-07T20:13:16;19.60;96.50
16907;DHT22;8570;52.380;4.654;2022-08-07T20:18:18;19.50;96.50
16907;DHT22;8570;52.380;4.654;2022-08-07T20:23:31;19.40;96.50
16907;DHT22;8570;52.380;4.654;2022-08-07T20:28:36;19.40;96.70
16907;DHT22;8570;52.380;4.654;2022-08-07T20:33:45;19.30;96.70
16907;DHT22;8570;52.380;4.654;2022-08-07T20:38:50;19.20;96.90
16907;DHT22;8570;52.380;4.654;2022-08-07T20:43:55;19.20;97.00
16907;DHT22;8570;52.380;4.654;2022-08-07T20:48:59;19.10;97.10
16907;DHT22;8570;52.380;4.654;2022-08-07T20:54:03;19.10;97.20
16907;DHT22;8570;52.380;4.654;2022-08-07T20:59:06;19.10;97.20
16907;DHT22;8570;52.380;4.654;2022-08-07T21:04:10;19.00;97.60
16907;DHT22;8570;52.380;4.654;2022-08-07T21:09:18;19.00;97.40
16907;DHT22;8570;52.380;4.654;2022-08-07T21:14:24;18.90;97.40
16907;DHT22;8570;52.380;4.654;2022-08-07T21:19:28;18.90;97.40
16907;DHT22;8570;52.380;4.654;2022-08-07T21:24:41;18.80;97.30
16907;DHT22;8570;52.380;4.654;2022-08-07T21:29:51;18.70;97.50
16907;DHT22;8570;52.380;4.654;2022-08-07T21:35:00;18.70;97.50
16907;DHT22;8570;52.380;4.654;2022-08-07T21:40:07;18.60;97.60
16907;DHT22;8570;52.380;4.654;2022-08-07T21:45:21;18.60;97.90
16907;DHT22;8570;52.380;4.654;2022-08-07T21:50:29;18.50;97.90
16907;DHT22;8570;52.380;4.654;2022-08-07T21:55:41;18.50;98.50
16907;DHT22;8570;52.380;4.654;2022-08-07T22:00:48;18.40;98.30
16907;DHT22;8570;52.380;4.654;2022-08-07T22:05:56;18.40;98.30
16907;DHT22;8570;52.380;4.654;2022-08-07T22:11:02;18.30;98.40
16907;DHT22;8570;52.380;4.654;2022-08-07T22:16:08;18.20;98.50
16907;DHT22;8570;52.380;4.654;2022-08-07T22:21:15;18.20;98.60
16907;DHT22;8570;52.380;4.654;2022-08-07T22:26:23;18.10;98.60
16907;DHT22;8570;52.380;4.654;2022-08-07T22:31:36;18.10;98.80
16907;DHT22;8570;52.380;4.654;2022-08-07T22:36:48;18.00;98.80
16907;DHT22;8570;52.380;4.654;2022-08-07T22:41:57;18.00;98.90
16907;DHT22;8570;52.380;4.654;2022-08-07T22:47:17;17.90;98.90
16907;DHT22;8570;52.380;4.654;2022-08-07T22:52:49;17.90;98.90
16907;DHT22;8570;52.380;4.654;2022-08-07T22:58:23;17.80;98.90
16907;DHT22;8570;52.380;4.654;2022-08-07T23:03:38;17.70;99.00
16907;DHT22;8570;52.380;4.654;2022-08-07T23:08:52;17.70;99.10
16907;DHT22;8570;52.380;4.654;2022-08-07T23:14:18;17.60;99.10
16907;DHT22;8570;52.380;4.654;2022-08-07T23:19:34;17.60;99.20
16907;DHT22;8570;52.380;4.654;2022-08-07T23:25:07;17.50;99.20
16907;DHT22;8570;52.380;4.654;2022-08-07T23:30:14;17.50;99.30
16907;DHT22;8570;52.380;4.654;2022-08-07T23:35:20;17.50;99.40
16907;DHT22;8570;52.380;4.654;2022-08-07T23:40:30;17.40;99.50
16907;DHT22;8570;52.380;4.654;2022-08-07T23:45:42;17.40;99.60
16907;DHT22;8570;52.380;4.654;2022-08-07T23:50:48;17.40;99.70
16907;DHT22;8570;52.380;4.654;2022-08-07T23:55:57;17.30;99.80
